sensor_id;sensor_type;location;lat;lon;timestamp;P1;durP1;ratioP1;P2;durP2;ratioP2
72062;SDS011;59929;43.546;-5.702;2022-08-19T00:00:43;0.77;;;0.00;;
72062;SDS011;59929;43.546;-5.702;2022-08-19T00:03:09;0.00;;;0.00;;
72062;SDS011;59929;43.546;-5.702;2022-08-19T00:05:35;0.17;;;0.00;;
72062;SDS011;59929;43.546;-5.702;2022-08-19T00:08:00;0.40;;;0.00;;
72062;SDS011;59929;43.546;-5.702;2022-08-19T00:10:26;0.20;;;0.00;;
72062;SDS011;59929;43.546;-5.702;2022-08-19T00:12:52;0.15;;;0.00;;
72062;SDS011;59929;43.546;-5.702;2022-08-19T00:15:20;0.20;;;0.00;;
72062;SDS011;59929;43.546;-5.702;2022-08-19T00:17:46;0.38;;;0.00;;
72062;SDS011;59929;43.546;-5.702;2022-08-19T00:20:14;0.25;;;0.00;;
72062;SDS011;59929;43.546;-5.702;2022-08-19T00:22:43;0.35;;;0.00;;
72062;SDS011;59929;43.546;-5.702;2022-08-19T00:25:09;1.13;;;0.00;;
72062;SDS011;59929;43.546;-5.702;2022-08-19T00:27:35;0.40;;;0.00;;
72062;SDS011;59929;43.546;-5.702;2022-08-19T00:30:03;0.33;;;0.00;;
72062;SDS011;59929;43.546;-5.702;2022-08-19T00:32:30;0.28;;;0.00;;
72062;SDS011;59929;43.546;-5.702;2022-08-19T00:34:55;0.85;;;0.00;;
72062;SDS011;59929;43.546;-5.702;2022-08-19T00:37:22;0.20;;;0.00;;
72062;SDS011;59929;43.546;-5.702;2022-08-19T00:39:50;0.47;;;0.00;;
72062;SDS011;59929;43.546;-5.702;2022-08-19T00:42:16;0.20;;;0.00;;
72062;SDS011;59929;43.546;-5.702;2022-08-19T00:44:43;0.47;;;0.00;;
72062;SDS011;59929;43.546;-5.702;2022-08-19T00:47:09;0.10;;;0.00;;
72062;SDS011;59929;43.546;-5.702;2022-08-19T00:49:37;0.43;;;0.00;;
72062;SDS011;59929;43.546;-5.702;2022-08-19T00:52:09;0.38;;;0.00;;
72062;SDS011;59929;43.546;-5.702;2022-08-19T00:54:42;0.10;;;0.00;;
72062;SDS011;59929;43.546;-5.702;2022-08-19T00:57:10;0.00;;;0.00;;
72062;SDS011;59929;43.546;-5.702;2022-08-19T00:59:39;0.20;;;0.00;;
72062;SDS011;59929;43.546;-5.702;2022-08-19T01:02:07;0.52;;;0.00;;
72062;SDS011;59929;43.546;-5.702;2022-08-19T01:04:33;0.28;;;0.00;;
72062;SDS011;59929;43.546;-5.702;2022-08-19T01:06:58;0.30;;;0.00;;
72062;SDS011;59929;43.546;-5.702;2022-08-19T01:09:25;0.30;;;0.00;;
72062;SDS011;59929;43.546;-5.702;2022-08-19T01:11:50;0.37;;;0.00;;
72062;SDS011;59929;43.546;-5.702;2022-08-19T01:14:16;0.20;;;0.00;;
72062;SDS011;59929;43.546;-5.702;2022-08-19T01:16:44;0.30;;;0.00;;
72062;SDS011;59929;43.546;-5.702;2022-08-19T01:19:24;0.20;;;0.00;;
72062;SDS011;59929;43.546;-5.702;2022-08-19T01:21:56;0.20;;;0.00;;
72062;SDS011;59929;43.546;-5.702;2022-08-19T01:24:27;0.10;;;0.00;;
72062;SDS011;59929;43.546;-5.702;2022-08-19T01:26:53;0.00;;;0.00;;
72062;SDS011;59929;43.546;-5.702;2022-08-19T01:29:19;0.52;;;0.00;;
72062;SDS011;59929;43.546;-5.702;2022-08-19T01:31:45;0.33;;;0.00;;
72062;SDS011;59929;43.546;-5.702;2022-08-19T01:34:11;0.47;;;0.00;;
72062;SDS011;59929;43.546;-5.702;2022-08-19T01:36:38;0.67;;;0.00;;
72062;SDS011;59929;43.546;-5.702;2022-08-19T01:39:11;0.30;;;0.00;;
72062;SDS011;59929;43.546;-5.702;2022-08-19T01:41:38;0.57;;;0.00;;
72062;SDS011;59929;43.546;-5.702;2022-08-19T01:44:04;0.67;;;0.00;;
72062;SDS011;59929;43.546;-5.702;2022-08-19T01:46:31;0.38;;;0.00;;
72062;SDS011;59929;43.546;-5.702;2022-08-19T01:48:57;0.30;;;0.00;;
72062;SDS011;59929;43.546;-5.702;2022-08-19T01:51:23;0.20;;;0.00;;
72062;SDS011;59929;43.546;-5.702;2022-08-19T01:53:49;0.50;;;0.07;;
72062;SDS011;59929;43.546;-5.702;2022-08-19T01:56:16;0.30;;;0.00;;
72062;SDS011;59929;43.546;-5.702;2022-08-19T01:58:44;0.30;;;0.00;;
72062;SDS011;59929;43.546;-5.702;2022-08-19T02:01:15;0.30;;;0.00;;
72062;SDS011;59929;43.546;-5.702;2022-08-19T02:03:42;0.20;;;0.00;;
72062;SDS011;59929;43.546;-5.702;2022-08-19T02:06:08;0.30;;;0.00;;
72062;SDS011;59929;43.546;-5.702;2022-08-19T02:08:34;0.17;;;0.00;;
72062;SDS011;59929;43.546;-5.702;2022-08-19T02:11:03;0.43;;;0.00;;
72062;SDS011;59929;43.546;-5.702;2022-08-19T02:13:30;0.55;;;0.00;;
72062;SDS011;59929;43.546;-5.702;2022-08-19T02:15:56;0.00;;;0.00;;
72062;SDS011;59929;43.546;-5.702;2022-08-19T02:18:22;0.10;;;0.00;;
72062;SDS011;59929;43.546;-5.702;2022-08-19T02:20:49;0.10;;;0.00;;
72062;SDS011;59929;43.546;-5.702;2022-08-19T02:23:15;0.20;;;0.00;;
72062;SDS011;59929;43.546;-5.702;2022-08-19T02:25:44;0.00;;;0.00;;
72062;SDS011;59929;43.546;-5.702;2022-08-19T02:28:12;0.00;;;0.00;;
72062;SDS011;59929;43.546;-5.702;2022-08-19T02:30:38;0.00;;;0.00;;
72062;SDS011;59929;43.546;-5.702;2022-08-19T02:33:05;0.00;;;0.00;;
72062;SDS011;59929;43.546;-5.702;2022-08-19T02:35:31;0.13;;;0.00;;
72062;SDS011;59929;43.546;-5.702;2022-08-19T02:37:57;0.30;;;0.00;;
72062;SDS011;59929;43.546;-5.702;2022-08-19T02:40:40;0.10;;;0.00;;
72062;SDS011;59929;43.546;-5.702;2022-08-19T02:43:14;0.30;;;0.00;;
72062;SDS011;59929;43.546;-5.702;2022-08-19T02:45:40;0.28;;;0.00;;
72062;SDS011;59929;43.546;-5.702;2022-08-19T02:48:06;0.17;;;0.00;;
72062;SDS011;59929;43.546;-5.702;2022-08-19T02:50:36;0.20;;;0.00;;
72062;SDS011;59929;43.546;-5.702;2022-08-19T02:53:03;0.20;;;0.00;;
72062;SDS011;59929;43.546;-5.702;2022-08-19T02:55:29;0.20;;;0.00;;
72062;SDS011;59929;43.546;-5.702;2022-08-19T02:57:55;0.20;;;0.00;;
72062;SDS011;59929;43.546;-5.702;2022-08-19T03:00:22;0.00;;;0.00;;
72062;SDS011;59929;43.546;-5.702;2022-08-19T03:02:49;0.47;;;0.00;;
72062;SDS011;59929;43.546;-5.702;2022-08-19T03:05:15;0.30;;;0.00;;
72062;SDS011;59929;43.546;-5.702;2022-08-19T03:07:41;0.40;;;0.00;;
72062;SDS011;59929;43.546;-5.702;2022-08-19T03:10:07;0.22;;;0.00;;
72062;SDS011;59929;43.546;-5.702;2022-08-19T03:12:36;0.17;;;0.00;;
72062;SDS011;59929;43.546;-5.702;2022-08-19T03:15:04;0.22;;;0.00;;
72062;SDS011;59929;43.546;-5.702;2022-08-19T03:17:32;0.10;;;0.00;;
72062;SDS011;59929;43.546;-5.702;2022-08-19T03:19:58;0.20;;;0.00;;
72062;SDS011;59929;43.546;-5.702;2022-08-19T03:22:24;0.35;;;0.00;;
72062;SDS011;59929;43.546;-5.702;2022-08-19T03:24:50;0.38;;;0.00;;
72062;SDS011;59929;43.546;-5.702;2022-08-19T03:27:16;0.40;;;0.00;;
72062;SDS011;59929;43.546;-5.702;2022-08-19T03:29:43;0.20;;;0.00;;
72062;SDS011;59929;43.546;-5.702;2022-08-19T03:32:09;0.28;;;0.00;;
72062;SDS011;59929;43.546;-5.702;2022-08-19T03:34:36;0.20;;;0.00;;
72062;SDS011;59929;43.546;-5.702;2022-08-19T03:37:06;0.20;;;0.00;;
72062;SDS011;59929;43.546;-5.702;2022-08-19T03:39:33;0.10;;;0.00;;
72062;SDS011;59929;43.546;-5.702;2022-08-19T03:42:00;0.10;;;0.00;;
72062;SDS011;59929;43.546;-5.702;2022-08-19T03:44:28;0.10;;;0.00;;
72062;SDS011;59929;43.546;-5.702;2022-08-19T03:46:55;0.10;;;0.00;;
72062;SDS011;59929;43.546;-5.702;2022-08-19T03:49:23;0.20;;;0.00;;
72062;SDS011;59929;43.546;-5.702;2022-08-19T03:51:52;0.10;;;0.00;;
72062;SDS011;59929;43.546;-5.702;2022-08-19T03:54:19;0.20;;;0.00;;
72062;SDS011;59929;43.546;-5.702;2022-08-19T03:56:48;0.43;;;0.00;;
72062;SDS011;59929;43.546;-5.702;2022-08-19T03:59:18;0.20;;;0.00;;
72062;SDS011;59929;43.546;-5.702;2022-08-19T04:01:50;0.10;;;0.00;;
72062;SDS011;59929;43.546;-5.702;2022-08-19T04:04:16;0.15;;;0.00;;
72062;SDS011;59929;43.546;-5.702;2022-08-19T04:06:42;0.20;;;0.00;;
72062;SDS011;59929;43.546;-5.702;2022-08-19T04:09:09;0.03;;;0.00;;
72062;SDS011;59929;43.546;-5.702;2022-08-19T04:11:37;0.10;;;0.00;;
72062;SDS011;59929;43.546;-5.702;2022-08-19T04:14:07;0.20;;;0.00;;
72062;SDS011;59929;43.546;-5.702;2022-08-19T04:16:34;0.15;;;0.00;;
72062;SDS011;59929;43.546;-5.702;2022-08-19T04:19:00;0.10;;;0.00;;
72062;SDS011;59929;43.546;-5.702;2022-08-19T04:21:27;0.43;;;0.00;;
72062;SDS011;59929;43.546;-5.702;2022-08-19T04:23:54;0.32;;;0.00;;
72062;SDS011;59929;43.546;-5.702;2022-08-19T04:26:23;0.20;;;0.00;;
72062;SDS011;59929;43.546;-5.702;2022-08-19T04:28:51;0.10;;;0.00;;
72062;SDS011;59929;43.546;-5.702;2022-08-19T04:31:18;0.00;;;0.00;;
72062;SDS011;59929;43.546;-5.702;2022-08-19T04:33:51;0.00;;;0.00;;
72062;SDS011;59929;43.546;-5.702;2022-08-19T04:36:23;0.00;;;0.00;;
72062;SDS011;59929;43.546;-5.702;2022-08-19T04:38:53;0.05;;;0.00;;
72062;SDS011;59929;43.546;-5.702;2022-08-19T04:41:20;0.00;;;0.00;;
72062;SDS011;59929;43.546;-5.702;2022-08-19T04:44:02;0.00;;;0.00;;
72062;SDS011;59929;43.546;-5.702;2022-08-19T04:46:28;0.10;;;0.00;;
72062;SDS011;59929;43.546;-5.702;2022-08-19T04:48:56;0.63;;;0.00;;
72062;SDS011;59929;43.546;-5.702;2022-08-19T04:51:22;0.20;;;0.00;;
72062;SDS011;59929;43.546;-5.702;2022-08-19T04:53:48;0.10;;;0.00;;
72062;SDS011;59929;43.546;-5.702;2022-08-19T04:56:15;0.00;;;0.00;;
72062;SDS011;59929;43.546;-5.702;2022-08-19T04:58:42;0.10;;;0.00;;
72062;SDS011;59929;43.546;-5.702;2022-08-19T05:01:11;0.10;;;0.00;;
72062;SDS011;59929;43.546;-5.702;2022-08-19T05:03:39;0.00;;;0.00;;
72062;SDS011;59929;43.546;-5.702;2022-08-19T05:06:06;0.00;;;0.00;;
72062;SDS011;59929;43.546;-5.702;2022-08-19T05:08:34;0.20;;;0.00;;
72062;SDS011;59929;43.546;-5.702;2022-08-19T05:11:06;0.15;;;0.00;;
72062;SDS011;59929;43.546;-5.702;2022-08-19T05:13:37;0.08;;;0.00;;
72062;SDS011;59929;43.546;-5.702;2022-08-19T05:16:03;0.25;;;0.00;;
72062;SDS011;59929;43.546;-5.702;2022-08-19T05:18:29;0.45;;;0.00;;
72062;SDS011;59929;43.546;-5.702;2022-08-19T05:21:07;0.10;;;0.00;;
72062;SDS011;59929;43.546;-5.702;2022-08-19T05:23:45;0.30;;;0.00;;
72062;SDS011;59929;43.546;-5.702;2022-08-19T05:26:11;0.03;;;0.00;;
72062;SDS011;59929;43.546;-5.702;2022-08-19T05:28:36;0.30;;;0.00;;
72062;SDS011;59929;43.546;-5.702;2022-08-19T05:31:02;0.47;;;0.00;;
72062;SDS011;59929;43.546;-5.702;2022-08-19T05:33:28;0.10;;;0.00;;
72062;SDS011;59929;43.546;-5.702;2022-08-19T05:35:53;0.20;;;0.00;;
72062;SDS011;59929;43.546;-5.702;2022-08-19T05:38:19;0.20;;;0.00;;
72062;SDS011;59929;43.546;-5.702;2022-08-19T05:40:45;0.30;;;0.00;;
72062;SDS011;59929;43.546;-5.702;2022-08-19T05:43:12;0.10;;;0.00;;
72062;SDS011;59929;43.546;-5.702;2022-08-19T05:45:40;0.10;;;0.00;;
72062;SDS011;59929;43.546;-5.702;2022-08-19T05:48:08;0.00;;;0.00;;
72062;SDS011;59929;43.546;-5.702;2022-08-19T05:50:36;1.05;;;0.00;;
72062;SDS011;59929;43.546;-5.702;2022-08-19T05:53:03;0.40;;;0.00;;
72062;SDS011;59929;43.546;-5.702;2022-08-19T05:55:30;0.45;;;0.00;;
72062;SDS011;59929;43.546;-5.702;2022-08-19T05:57:56;0.08;;;0.00;;
72062;SDS011;59929;43.546;-5.702;2022-08-19T06:00:22;0.30;;;0.00;;
72062;SDS011;59929;43.546;-5.702;2022-08-19T06:02:48;0.00;;;0.00;;
72062;SDS011;59929;43.546;-5.702;2022-08-19T06:05:15;0.00;;;0.00;;
72062;SDS011;59929;43.546;-5.702;2022-08-19T06:07:41;0.00;;;0.00;;
72062;SDS011;59929;43.546;-5.702;2022-08-19T06:10:08;0.10;;;0.00;;
72062;SDS011;59929;43.546;-5.702;2022-08-19T06:12:35;0.10;;;0.00;;
72062;SDS011;59929;43.546;-5.702;2022-08-19T06:15:02;0.17;;;0.00;;
72062;SDS011;59929;43.546;-5.702;2022-08-19T06:17:33;0.10;;;0.00;;
72062;SDS011;59929;43.546;-5.702;2022-08-19T06:20:00;0.22;;;0.00;;
72062;SDS011;59929;43.546;-5.702;2022-08-19T06:22:26;0.10;;;0.00;;
72062;SDS011;59929;43.546;-5.702;2022-08-19T06:24:53;0.10;;;0.00;;
72062;SDS011;59929;43.546;-5.702;2022-08-19T06:27:20;0.00;;;0.00;;
72062;SDS011;59929;43.546;-5.702;2022-08-19T06:29:46;0.00;;;0.00;;
72062;SDS011;59929;43.546;-5.702;2022-08-19T06:32:12;0.00;;;0.00;;
72062;SDS011;59929;43.546;-5.702;2022-08-19T06:34:40;0.10;;;0.00;;
72062;SDS011;59929;43.546;-5.702;2022-08-19T06:37:06;0.10;;;0.00;;
72062;SDS011;59929;43.546;-5.702;2022-08-19T06:39:35;0.00;;;0.00;;
72062;SDS011;59929;43.546;-5.702;2022-08-19T06:42:03;0.20;;;0.00;;
72062;SDS011;59929;43.546;-5.702;2022-08-19T06:44:33;0.10;;;0.00;;
72062;SDS011;59929;43.546;-5.702;2022-08-19T06:47:02;0.10;;;0.00;;
72062;SDS011;59929;43.546;-5.702;2022-08-19T06:49:29;0.10;;;0.00;;
72062;SDS011;59929;43.546;-5.702;2022-08-19T06:51:56;0.00;;;0.00;;
72062;SDS011;59929;43.546;-5.702;2022-08-19T06:54:23;0.30;;;0.00;;
72062;SDS011;59929;43.546;-5.702;2022-08-19T06:56:49;0.10;;;0.00;;
72062;SDS011;59929;43.546;-5.702;2022-08-19T06:59:16;0.23;;;0.00;;
72062;SDS011;59929;43.546;-5.702;2022-08-19T07:01:45;0.10;;;0.00;;
72062;SDS011;59929;43.546;-5.702;2022-08-19T07:04:15;0.10;;;0.00;;
72062;SDS011;59929;43.546;-5.702;2022-08-19T07:06:44;0.00;;;0.00;;
72062;SDS011;59929;43.546;-5.702;2022-08-19T07:09:12;0.20;;;0.00;;
72062;SDS011;59929;43.546;-5.702;2022-08-19T07:11:48;0.10;;;0.00;;
72062;SDS011;59929;43.546;-5.702;2022-08-19T07:14:16;0.10;;;0.00;;
72062;SDS011;59929;43.546;-5.702;2022-08-19T07:16:43;0.00;;;0.00;;
72062;SDS011;59929;43.546;-5.702;2022-08-19T07:19:11;0.50;;;0.00;;
72062;SDS011;59929;43.546;-5.702;2022-08-19T07:21:37;0.65;;;0.00;;
72062;SDS011;59929;43.546;-5.702;2022-08-19T07:24:05;0.20;;;0.00;;
72062;SDS011;59929;43.546;-5.702;2022-08-19T07:26:32;0.40;;;0.00;;
72062;SDS011;59929;43.546;-5.702;2022-08-19T07:29:04;0.15;;;0.00;;
72062;SDS011;59929;43.546;-5.702;2022-08-19T07:31:30;0.25;;;0.00;;
72062;SDS011;59929;43.546;-5.702;2022-08-19T07:34:02;1.17;;;0.00;;
72062;SDS011;59929;43.546;-5.702;2022-08-19T07:36:31;0.20;;;0.00;;
72062;SDS011;59929;43.546;-5.702;2022-08-19T07:38:59;0.10;;;0.00;;
72062;SDS011;59929;43.546;-5.702;2022-08-19T07:41:28;0.28;;;0.00;;
72062;SDS011;59929;43.546;-5.702;2022-08-19T07:43:55;0.25;;;0.00;;
72062;SDS011;59929;43.546;-5.702;2022-08-19T07:46:21;0.00;;;0.00;;
72062;SDS011;59929;43.546;-5.702;2022-08-19T07:48:47;0.03;;;0.00;;
72062;SDS011;59929;43.546;-5.702;2022-08-19T07:51:17;0.00;;;0.00;;
72062;SDS011;59929;43.546;-5.702;2022-08-19T07:53:45;0.15;;;0.00;;
72062;SDS011;59929;43.546;-5.702;2022-08-19T07:56:13;0.00;;;0.00;;
72062;SDS011;59929;43.546;-5.702;2022-08-19T07:58:40;0.10;;;0.00;;
72062;SDS011;59929;43.546;-5.702;2022-08-19T08:01:09;0.00;;;0.00;;
72062;SDS011;59929;43.546;-5.702;2022-08-19T08:03:38;0.00;;;0.00;;
72062;SDS011;59929;43.546;-5.702;2022-08-19T08:06:20;0.00;;;0.00;;
72062;SDS011;59929;43.546;-5.702;2022-08-19T08:09:02;0.00;;;0.00;;
72062;SDS011;59929;43.546;-5.702;2022-08-19T08:11:37;0.08;;;0.00;;
72062;SDS011;59929;43.546;-5.702;2022-08-19T08:14:05;0.10;;;0.00;;
72062;SDS011;59929;43.546;-5.702;2022-08-19T08:16:34;0.10;;;0.00;;
72062;SDS011;59929;43.546;-5.702;2022-08-19T08:19:03;0.00;;;0.00;;
72062;SDS011;59929;43.546;-5.702;2022-08-19T08:21:31;0.05;;;0.00;;
72062;SDS011;59929;43.546;-5.702;2022-08-19T08:23:57;0.30;;;0.00;;
72062;SDS011;59929;43.546;-5.702;2022-08-19T08:26:23;0.33;;;0.00;;
72062;SDS011;59929;43.546;-5.702;2022-08-19T08:28:50;0.10;;;0.00;;
72062;SDS011;59929;43.546;-5.702;2022-08-19T08:31:17;0.00;;;0.00;;
72062;SDS011;59929;43.546;-5.702;2022-08-19T08:33:44;0.55;;;0.00;;
72062;SDS011;59929;43.546;-5.702;2022-08-19T08:36:11;0.10;;;0.00;;
72062;SDS011;59929;43.546;-5.702;2022-08-19T08:38:39;0.00;;;0.00;;
72062;SDS011;59929;43.546;-5.702;2022-08-19T08:41:18;0.20;;;0.00;;
72062;SDS011;59929;43.546;-5.702;2022-08-19T08:43:56;0.20;;;0.00;;
72062;SDS011;59929;43.546;-5.702;2022-08-19T08:46:27;0.30;;;0.10;;
72062;SDS011;59929;43.546;-5.702;2022-08-19T08:49:19;0.40;;;0.13;;
72062;SDS011;59929;43.546;-5.702;2022-08-19T08:52:00;0.10;;;0.00;;
72062;SDS011;59929;43.546;-5.702;2022-08-19T08:54:34;0.10;;;0.00;;
72062;SDS011;59929;43.546;-5.702;2022-08-19T08:57:04;0.10;;;0.00;;
72062;SDS011;59929;43.546;-5.702;2022-08-19T08:59:36;0.10;;;0.00;;
72062;SDS011;59929;43.546;-5.702;2022-08-19T09:02:06;0.00;;;0.00;;
72062;SDS011;59929;43.546;-5.702;2022-08-19T09:04:34;0.10;;;0.00;;
72062;SDS011;59929;43.546;-5.702;2022-08-19T09:10:01;0.10;;;0.00;;
72062;SDS011;59929;43.546;-5.702;2022-08-19T09:12:47;0.00;;;0.00;;
72062;SDS011;59929;43.546;-5.702;2022-08-19T09:15:28;0.00;;;0.00;;
72062;SDS011;59929;43.546;-5.702;2022-08-19T09:18:00;0.10;;;0.00;;
72062;SDS011;59929;43.546;-5.702;2022-08-19T09:20:27;0.10;;;0.00;;
72062;SDS011;59929;43.546;-5.702;2022-08-19T09:22:52;0.00;;;0.00;;
72062;SDS011;59929;43.546;-5.702;2022-08-19T09:25:19;0.10;;;0.00;;
72062;SDS011;59929;43.546;-5.702;2022-08-19T09:27:48;0.00;;;0.00;;
72062;SDS011;59929;43.546;-5.702;2022-08-19T09:30:19;0.00;;;0.00;;
72062;SDS011;59929;43.546;-5.702;2022-08-19T09:32:48;0.00;;;0.00;;
72062;SDS011;59929;43.546;-5.702;2022-08-19T09:35:17;0.00;;;0.00;;
72062;SDS011;59929;43.546;-5.702;2022-08-19T09:37:45;0.05;;;0.00;;
72062;SDS011;59929;43.546;-5.702;2022-08-19T09:40:11;0.00;;;0.00;;
72062;SDS011;59929;43.546;-5.702;2022-08-19T09:42:37;0.10;;;0.00;;
72062;SDS011;59929;43.546;-5.702;2022-08-19T09:45:03;0.10;;;0.00;;
72062;SDS011;59929;43.546;-5.702;2022-08-19T09:47:29;0.23;;;0.10;;
72062;SDS011;59929;43.546;-5.702;2022-08-19T09:49:55;0.10;;;0.00;;
72062;SDS011;59929;43.546;-5.702;2022-08-19T09:52:21;0.10;;;0.00;;
72062;SDS011;59929;43.546;-5.702;2022-08-19T09:54:46;0.00;;;0.00;;
72062;SDS011;59929;43.546;-5.702;2022-08-19T09:57:12;0.10;;;0.00;;
72062;SDS011;59929;43.546;-5.702;2022-08-19T09:59:38;0.00;;;0.00;;
72062;SDS011;59929;43.546;-5.702;2022-08-19T10:02:05;0.00;;;0.00;;
72062;SDS011;59929;43.546;-5.702;2022-08-19T10:04:30;0.00;;;0.00;;
72062;SDS011;59929;43.546;-5.702;2022-08-19T10:07:13;0.00;;;0.00;;
72062;SDS011;59929;43.546;-5.702;2022-08-19T10:09:39;0.10;;;0.00;;
72062;SDS011;59929;43.546;-5.702;2022-08-19T10:12:06;0.00;;;0.00;;
72062;SDS011;59929;43.546;-5.702;2022-08-19T10:14:33;0.00;;;0.00;;
72062;SDS011;59929;43.546;-5.702;2022-08-19T10:16:59;0.00;;;0.00;;
72062;SDS011;59929;43.546;-5.702;2022-08-19T10:19:26;0.00;;;0.00;;
72062;SDS011;59929;43.546;-5.702;2022-08-19T10:21:55;0.00;;;0.00;;
72062;SDS011;59929;43.546;-5.702;2022-08-19T10:24:21;0.00;;;0.00;;
72062;SDS011;59929;43.546;-5.702;2022-08-19T10:26:49;0.00;;;0.00;;
72062;SDS011;59929;43.546;-5.702;2022-08-19T10:29:15;0.00;;;0.00;;
72062;SDS011;59929;43.546;-5.702;2022-08-19T10:31:41;0.00;;;0.00;;
72062;SDS011;59929;43.546;-5.702;2022-08-19T10:34:07;0.00;;;0.00;;
72062;SDS011;59929;43.546;-5.702;2022-08-19T10:36:33;0.00;;;0.00;;
72062;SDS011;59929;43.546;-5.702;2022-08-19T10:39:03;0.00;;;0.00;;
72062;SDS011;59929;43.546;-5.702;2022-08-19T10:41:32;0.00;;;0.00;;
72062;SDS011;59929;43.546;-5.702;2022-08-19T10:44:02;0.00;;;0.00;;
72062;SDS011;59929;43.546;-5.702;2022-08-19T10:46:30;0.00;;;0.00;;
72062;SDS011;59929;43.546;-5.702;2022-08-19T10:48:58;0.00;;;0.00;;
72062;SDS011;59929;43.546;-5.702;2022-08-19T10:51:26;0.00;;;0.00;;
72062;SDS011;59929;43.546;-5.702;2022-08-19T10:54:06;0.00;;;0.00;;
72062;SDS011;59929;43.546;-5.702;2022-08-19T10:56:32;0.10;;;0.00;;
72062;SDS011;59929;43.546;-5.702;2022-08-19T10:59:09;0.00;;;0.00;;
72062;SDS011;59929;43.546;-5.702;2022-08-19T11:01:34;0.10;;;0.00;;
72062;SDS011;59929;43.546;-5.702;2022-08-19T11:04:01;0.00;;;0.00;;
72062;SDS011;59929;43.546;-5.702;2022-08-19T11:06:31;0.10;;;0.00;;
72062;SDS011;59929;43.546;-5.702;2022-08-19T11:08:57;0.05;;;0.00;;
72062;SDS011;59929;43.546;-5.702;2022-08-19T11:11:25;0.00;;;0.00;;
72062;SDS011;59929;43.546;-5.702;2022-08-19T11:13:51;0.10;;;0.00;;
72062;SDS011;59929;43.546;-5.702;2022-08-19T11:16:19;0.00;;;0.00;;
72062;SDS011;59929;43.546;-5.702;2022-08-19T11:18:48;0.00;;;0.00;;
72062;SDS011;59929;43.546;-5.702;2022-08-19T11:21:18;0.10;;;0.00;;
72062;SDS011;59929;43.546;-5.702;2022-08-19T11:23:47;0.00;;;0.00;;
72062;SDS011;59929;43.546;-5.702;2022-08-19T11:26:15;0.00;;;0.00;;
72062;SDS011;59929;43.546;-5.702;2022-08-19T11:28:42;0.00;;;0.00;;
72062;SDS011;59929;43.546;-5.702;2022-08-19T11:31:09;0.00;;;0.00;;
72062;SDS011;59929;43.546;-5.702;2022-08-19T11:33:37;0.00;;;0.00;;
72062;SDS011;59929;43.546;-5.702;2022-08-19T11:36:03;0.00;;;0.00;;
72062;SDS011;59929;43.546;-5.702;2022-08-19T11:38:28;0.10;;;0.00;;
72062;SDS011;59929;43.546;-5.702;2022-08-19T11:40:57;0.00;;;0.00;;
72062;SDS011;59929;43.546;-5.702;2022-08-19T11:43:24;0.22;;;0.00;;
72062;SDS011;59929;43.546;-5.702;2022-08-19T11:45:52;0.00;;;0.00;;
72062;SDS011;59929;43.546;-5.702;2022-08-19T11:48:19;0.00;;;0.00;;
72062;SDS011;59929;43.546;-5.702;2022-08-19T11:50:47;0.00;;;0.00;;
72062;SDS011;59929;43.546;-5.702;2022-08-19T11:53:14;0.10;;;0.00;;
72062;SDS011;59929;43.546;-5.702;2022-08-19T11:55:40;0.10;;;0.00;;
72062;SDS011;59929;43.546;-5.702;2022-08-19T11:58:07;0.00;;;0.00;;
72062;SDS011;59929;43.546;-5.702;2022-08-19T12:00:33;0.00;;;0.00;;
72062;SDS011;59929;43.546;-5.702;2022-08-19T12:03:02;0.00;;;0.00;;
72062;SDS011;59929;43.546;-5.702;2022-08-19T12:05:27;0.00;;;0.00;;
72062;SDS011;59929;43.546;-5.702;2022-08-19T12:07:53;0.00;;;0.00;;
72062;SDS011;59929;43.546;-5.702;2022-08-19T12:10:19;0.00;;;0.00;;
72062;SDS011;59929;43.546;-5.702;2022-08-19T12:12:46;0.00;;;0.00;;
72062;SDS011;59929;43.546;-5.702;2022-08-19T12:15:12;0.10;;;0.00;;
72062;SDS011;59929;43.546;-5.702;2022-08-19T12:17:39;0.10;;;0.00;;
72062;SDS011;59929;43.546;-5.702;2022-08-19T12:20:07;0.00;;;0.00;;
72062;SDS011;59929;43.546;-5.702;2022-08-19T12:22:36;0.00;;;0.00;;
72062;SDS011;59929;43.546;-5.702;2022-08-19T12:25:04;0.00;;;0.00;;
72062;SDS011;59929;43.546;-5.702;2022-08-19T12:27:30;0.00;;;0.00;;
72062;SDS011;59929;43.546;-5.702;2022-08-19T12:29:56;0.00;;;0.00;;
72062;SDS011;59929;43.546;-5.702;2022-08-19T12:32:22;0.10;;;0.00;;
72062;SDS011;59929;43.546;-5.702;2022-08-19T12:34:49;0.10;;;0.00;;
72062;SDS011;59929;43.546;-5.702;2022-08-19T12:37:15;0.10;;;0.00;;
72062;SDS011;59929;43.546;-5.702;2022-08-19T12:39:42;0.00;;;0.00;;
72062;SDS011;59929;43.546;-5.702;2022-08-19T12:42:09;0.00;;;0.00;;
72062;SDS011;59929;43.546;-5.702;2022-08-19T12:44:36;0.10;;;0.00;;
72062;SDS011;59929;43.546;-5.702;2022-08-19T12:47:04;0.00;;;0.00;;
72062;SDS011;59929;43.546;-5.702;2022-08-19T12:49:32;0.00;;;0.00;;
72062;SDS011;59929;43.546;-5.702;2022-08-19T12:52:00;0.00;;;0.00;;
72062;SDS011;59929;43.546;-5.702;2022-08-19T12:54:26;0.00;;;0.00;;
72062;SDS011;59929;43.546;-5.702;2022-08-19T12:56:56;0.00;;;0.00;;
72062;SDS011;59929;43.546;-5.702;2022-08-19T12:59:22;0.10;;;0.00;;
72062;SDS011;59929;43.546;-5.702;2022-08-19T13:01:48;0.00;;;0.00;;
72062;SDS011;59929;43.546;-5.702;2022-08-19T13:04:13;0.00;;;0.00;;
72062;SDS011;59929;43.546;-5.702;2022-08-19T13:06:40;0.10;;;0.03;;
72062;SDS011;59929;43.546;-5.702;2022-08-19T13:09:07;0.10;;;0.00;;
72062;SDS011;59929;43.546;-5.702;2022-08-19T13:11:33;0.00;;;0.00;;
72062;SDS011;59929;43.546;-5.702;2022-08-19T13:14:00;0.00;;;0.00;;
72062;SDS011;59929;43.546;-5.702;2022-08-19T13:16:27;0.10;;;0.00;;
72062;SDS011;59929;43.546;-5.702;2022-08-19T13:18:54;0.10;;;0.00;;
72062;SDS011;59929;43.546;-5.702;2022-08-19T13:21:21;0.00;;;0.00;;
72062;SDS011;59929;43.546;-5.702;2022-08-19T13:23:49;0.00;;;0.00;;
72062;SDS011;59929;43.546;-5.702;2022-08-19T13:26:16;0.00;;;0.00;;
72062;SDS011;59929;43.546;-5.702;2022-08-19T13:28:43;0.00;;;0.00;;
72062;SDS011;59929;43.546;-5.702;2022-08-19T13:31:20;0.00;;;0.00;;
72062;SDS011;59929;43.546;-5.702;2022-08-19T13:34:05;0.00;;;0.00;;
72062;SDS011;59929;43.546;-5.702;2022-08-19T13:36:32;0.00;;;0.00;;
72062;SDS011;59929;43.546;-5.702;2022-08-19T13:38:58;0.00;;;0.00;;
72062;SDS011;59929;43.546;-5.702;2022-08-19T13:41:24;0.00;;;0.00;;
72062;SDS011;59929;43.546;-5.702;2022-08-19T13:43:50;0.10;;;0.00;;
72062;SDS011;59929;43.546;-5.702;2022-08-19T13:46:16;0.00;;;0.00;;
72062;SDS011;59929;43.546;-5.702;2022-08-19T13:48:42;0.05;;;0.00;;
72062;SDS011;59929;43.546;-5.702;2022-08-19T13:51:08;0.00;;;0.00;;
72062;SDS011;59929;43.546;-5.702;2022-08-19T13:53:36;0.00;;;0.00;;
72062;SDS011;59929;43.546;-5.702;2022-08-19T13:56:06;0.00;;;0.00;;
72062;SDS011;59929;43.546;-5.702;2022-08-19T13:58:33;0.00;;;0.00;;
72062;SDS011;59929;43.546;-5.702;2022-08-19T14:00:59;0.17;;;0.00;;
72062;SDS011;59929;43.546;-5.702;2022-08-19T14:03:25;0.47;;;0.30;;
72062;SDS011;59929;43.546;-5.702;2022-08-19T14:05:52;1.00;;;0.77;;
72062;SDS011;59929;43.546;-5.702;2022-08-19T14:08:18;1.20;;;0.90;;
72062;SDS011;59929;43.546;-5.702;2022-08-19T14:10:44;1.30;;;1.10;;
72062;SDS011;59929;43.546;-5.702;2022-08-19T14:13:12;1.85;;;1.65;;
72062;SDS011;59929;43.546;-5.702;2022-08-19T14:15:40;2.90;;;2.70;;
72062;SDS011;59929;43.546;-5.702;2022-08-19T14:18:06;3.67;;;3.38;;
72062;SDS011;59929;43.546;-5.702;2022-08-19T14:20:34;5.97;;;5.57;;
72062;SDS011;59929;43.546;-5.702;2022-08-19T14:23:00;7.18;;;6.78;;
72062;SDS011;59929;43.546;-5.702;2022-08-19T14:25:27;10.27;;;9.68;;
72062;SDS011;59929;43.546;-5.702;2022-08-19T14:27:56;11.05;;;10.45;;
72062;SDS011;59929;43.546;-5.702;2022-08-19T14:30:24;10.07;;;9.48;;
72062;SDS011;59929;43.546;-5.702;2022-08-19T14:32:53;12.50;;;11.80;;
72062;SDS011;59929;43.546;-5.702;2022-08-19T14:35:19;11.60;;;11.00;;
72062;SDS011;59929;43.546;-5.702;2022-08-19T14:37:47;11.23;;;10.63;;
72062;SDS011;59929;43.546;-5.702;2022-08-19T14:40:15;13.32;;;12.63;;